Brooks, Oregon
Current Conditions -  °F | °C
As of 2:56 AM on Monday 20 Oct 2014 (Local Time) from KSLE Reporting Station
Overcast Overcast  
Wind Chill: 60°   Ceiling: 3500
Heat Index: 60°   Visibility: 10mi
Dew Point: 57°   Wind: 5mph
Humidity: 90%   Direction: 260°W
Pressure: 29.74"   Gusts: NA
Location:  45.0168°N, 122.927°W
Report Text: KSLE 200956Z AUTO 26004KT 10SM BKN035 OVC046 16/14 A2974 RMK AO2 RAE15 SLP070 P0000 T01560139
Loading
Personal Weather Stations






























Interactive Weather Map
Tropical Storm Tracking
New forecast layout! Learn more

10-Day Weather Forecast

Advertisements
Track Severe Weather on mobile